sensor_id;sensor_type;location;lat;lon;timestamp;P1;durP1;ratioP1;P2;durP2;ratioP2
58250;SDS011;51449;51.676;5.812;2024-01-15T00:00:29;4.95;;;3.30;;
58250;SDS011;51449;51.676;5.812;2024-01-15T00:02:50;9.30;;;5.57;;
58250;SDS011;51449;51.676;5.812;2024-01-15T00:05:12;6.40;;;3.90;;
58250;SDS011;51449;51.676;5.812;2024-01-15T00:07:35;13.10;;;6.30;;
58250;SDS011;51449;51.676;5.812;2024-01-15T00:09:57;2.63;;;2.43;;
58250;SDS011;51449;51.676;5.812;2024-01-15T00:12:19;5.93;;;4.43;;
58250;SDS011;51449;51.676;5.812;2024-01-15T00:14:40;4.37;;;3.20;;
58250;SDS011;51449;51.676;5.812;2024-01-15T00:17:03;5.23;;;4.07;;
58250;SDS011;51449;51.676;5.812;2024-01-15T00:19:25;5.60;;;3.50;;
58250;SDS011;51449;51.676;5.812;2024-01-15T00:21:48;4.03;;;2.67;;
58250;SDS011;51449;51.676;5.812;2024-01-15T00:24:10;16.17;;;2.70;;
58250;SDS011;51449;51.676;5.812;2024-01-15T00:26:32;6.10;;;4.07;;
58250;SDS011;51449;51.676;5.812;2024-01-15T00:28:54;3.27;;;3.07;;
58250;SDS011;51449;51.676;5.812;2024-01-15T00:31:16;6.73;;;4.03;;
58250;SDS011;51449;51.676;5.812;2024-01-15T00:33:39;3.15;;;2.95;;
58250;SDS011;51449;51.676;5.812;2024-01-15T00:36:01;2.57;;;2.27;;
58250;SDS011;51449;51.676;5.812;2024-01-15T00:38:23;4.97;;;3.73;;
58250;SDS011;51449;51.676;5.812;2024-01-15T00:40:45;3.70;;;3.43;;
58250;SDS011;51449;51.676;5.812;2024-01-15T00:43:06;3.90;;;2.30;;
58250;SDS011;51449;51.676;5.812;2024-01-15T00:45:29;3.30;;;3.00;;
58250;SDS011;51449;51.676;5.812;2024-01-15T00:47:51;3.20;;;2.93;;
58250;SDS011;51449;51.676;5.812;2024-01-15T00:50:12;3.17;;;2.73;;
58250;SDS011;51449;51.676;5.812;2024-01-15T00:52:34;4.07;;;3.70;;
58250;SDS011;51449;51.676;5.812;2024-01-15T00:54:56;5.37;;;3.00;;
58250;SDS011;51449;51.676;5.812;2024-01-15T00:57:18;6.27;;;4.33;;
58250;SDS011;51449;51.676;5.812;2024-01-15T00:59:40;4.73;;;2.23;;
58250;SDS011;51449;51.676;5.812;2024-01-15T01:02:02;3.70;;;2.90;;
58250;SDS011;51449;51.676;5.812;2024-01-15T01:04:24;3.17;;;2.97;;
58250;SDS011;51449;51.676;5.812;2024-01-15T01:06:46;4.33;;;2.60;;
58250;SDS011;51449;51.676;5.812;2024-01-15T01:09:08;2.13;;;2.03;;
58250;SDS011;51449;51.676;5.812;2024-01-15T01:11:30;2.83;;;2.63;;
58250;SDS011;51449;51.676;5.812;2024-01-15T01:13:52;2.97;;;2.33;;
58250;SDS011;51449;51.676;5.812;2024-01-15T01:16:14;10.40;;;1.90;;
58250;SDS011;51449;51.676;5.812;2024-01-15T01:18:36;2.93;;;2.60;;
58250;SDS011;51449;51.676;5.812;2024-01-15T01:20:58;2.43;;;2.33;;
58250;SDS011;51449;51.676;5.812;2024-01-15T01:23:20;1.63;;;1.53;;
58250;SDS011;51449;51.676;5.812;2024-01-15T01:25:41;1.50;;;1.40;;
58250;SDS011;51449;51.676;5.812;2024-01-15T01:28:03;1.53;;;1.43;;
58250;SDS011;51449;51.676;5.812;2024-01-15T01:30:25;2.20;;;2.00;;
58250;SDS011;51449;51.676;5.812;2024-01-15T01:32:47;1.53;;;1.43;;
58250;SDS011;51449;51.676;5.812;2024-01-15T01:35:09;2.40;;;1.07;;
58250;SDS011;51449;51.676;5.812;2024-01-15T01:37:30;3.87;;;2.37;;
58250;SDS011;51449;51.676;5.812;2024-01-15T01:39:52;1.80;;;1.70;;
58250;SDS011;51449;51.676;5.812;2024-01-15T01:42:14;3.23;;;2.97;;
58250;SDS011;51449;51.676;5.812;2024-01-15T01:44:36;2.13;;;1.53;;
58250;SDS011;51449;51.676;5.812;2024-01-15T01:46:59;1.30;;;1.20;;
58250;SDS011;51449;51.676;5.812;2024-01-15T01:49:22;1.37;;;1.27;;
58250;SDS011;51449;51.676;5.812;2024-01-15T01:51:45;4.80;;;1.23;;
58250;SDS011;51449;51.676;5.812;2024-01-15T01:54:08;1.52;;;1.17;;
58250;SDS011;51449;51.676;5.812;2024-01-15T01:56:34;2.70;;;1.20;;
58250;SDS011;51449;51.676;5.812;2024-01-15T01:58:56;2.17;;;1.20;;
58250;SDS011;51449;51.676;5.812;2024-01-15T02:01:18;2.10;;;1.17;;
58250;SDS011;51449;51.676;5.812;2024-01-15T02:03:41;3.33;;;1.97;;
58250;SDS011;51449;51.676;5.812;2024-01-15T02:06:03;4.70;;;1.33;;
58250;SDS011;51449;51.676;5.812;2024-01-15T02:08:26;0.80;;;0.80;;
58250;SDS011;51449;51.676;5.812;2024-01-15T02:10:48;2.87;;;1.70;;
58250;SDS011;51449;51.676;5.812;2024-01-15T02:13:10;2.37;;;2.17;;
58250;SDS011;51449;51.676;5.812;2024-01-15T02:15:32;2.90;;;1.67;;
58250;SDS011;51449;51.676;5.812;2024-01-15T02:18:01;5.30;;;2.13;;
58250;SDS011;51449;51.676;5.812;2024-01-15T02:20:26;1.80;;;0.83;;
58250;SDS011;51449;51.676;5.812;2024-01-15T02:22:48;2.13;;;1.10;;
58250;SDS011;51449;51.676;5.812;2024-01-15T02:25:10;1.80;;;1.70;;
58250;SDS011;51449;51.676;5.812;2024-01-15T02:27:32;1.60;;;1.27;;
58250;SDS011;51449;51.676;5.812;2024-01-15T02:29:54;2.00;;;1.33;;
58250;SDS011;51449;51.676;5.812;2024-01-15T02:32:17;3.50;;;1.65;;
58250;SDS011;51449;51.676;5.812;2024-01-15T02:34:39;1.03;;;0.93;;
58250;SDS011;51449;51.676;5.812;2024-01-15T02:37:01;3.67;;;1.20;;
58250;SDS011;51449;51.676;5.812;2024-01-15T02:39:23;1.80;;;0.83;;
58250;SDS011;51449;51.676;5.812;2024-01-15T02:41:45;9.33;;;1.63;;
58250;SDS011;51449;51.676;5.812;2024-01-15T02:44:07;1.13;;;1.00;;
58250;SDS011;51449;51.676;5.812;2024-01-15T02:46:28;1.50;;;0.67;;
58250;SDS011;51449;51.676;5.812;2024-01-15T02:48:50;1.60;;;1.17;;
58250;SDS011;51449;51.676;5.812;2024-01-15T02:51:12;0.60;;;0.60;;
58250;SDS011;51449;51.676;5.812;2024-01-15T02:53:35;0.60;;;0.60;;
58250;SDS011;51449;51.676;5.812;2024-01-15T02:55:58;0.82;;;0.80;;
58250;SDS011;51449;51.676;5.812;2024-01-15T02:58:20;2.23;;;0.80;;
58250;SDS011;51449;51.676;5.812;2024-01-15T03:00:42;0.67;;;0.67;;
58250;SDS011;51449;51.676;5.812;2024-01-15T03:03:05;1.57;;;1.00;;
58250;SDS011;51449;51.676;5.812;2024-01-15T03:05:26;0.53;;;0.53;;
58250;SDS011;51449;51.676;5.812;2024-01-15T03:07:48;0.77;;;0.77;;
58250;SDS011;51449;51.676;5.812;2024-01-15T03:10:11;1.90;;;0.60;;
58250;SDS011;51449;51.676;5.812;2024-01-15T03:12:33;1.13;;;0.97;;
58250;SDS011;51449;51.676;5.812;2024-01-15T03:14:55;1.20;;;0.77;;
58250;SDS011;51449;51.676;5.812;2024-01-15T03:17:17;0.83;;;0.83;;
58250;SDS011;51449;51.676;5.812;2024-01-15T03:19:39;2.07;;;0.83;;
58250;SDS011;51449;51.676;5.812;2024-01-15T03:22:01;0.87;;;0.57;;
58250;SDS011;51449;51.676;5.812;2024-01-15T03:24:24;1.05;;;0.93;;
58250;SDS011;51449;51.676;5.812;2024-01-15T03:26:46;0.60;;;0.60;;
58250;SDS011;51449;51.676;5.812;2024-01-15T03:29:08;1.93;;;1.13;;
58250;SDS011;51449;51.676;5.812;2024-01-15T03:31:30;2.50;;;1.00;;
58250;SDS011;51449;51.676;5.812;2024-01-15T03:33:52;2.47;;;0.93;;
58250;SDS011;51449;51.676;5.812;2024-01-15T03:36:14;1.87;;;1.73;;
58250;SDS011;51449;51.676;5.812;2024-01-15T03:38:38;0.40;;;0.40;;
58250;SDS011;51449;51.676;5.812;2024-01-15T03:41:03;0.97;;;0.60;;
58250;SDS011;51449;51.676;5.812;2024-01-15T03:43:25;2.37;;;1.00;;
58250;SDS011;51449;51.676;5.812;2024-01-15T03:45:48;6.00;;;0.95;;
58250;SDS011;51449;51.676;5.812;2024-01-15T03:48:10;1.90;;;0.97;;
58250;SDS011;51449;51.676;5.812;2024-01-15T03:50:32;2.57;;;1.60;;
58250;SDS011;51449;51.676;5.812;2024-01-15T03:52:53;1.40;;;0.77;;
58250;SDS011;51449;51.676;5.812;2024-01-15T03:55:15;3.20;;;0.97;;
58250;SDS011;51449;51.676;5.812;2024-01-15T03:57:37;8.20;;;0.40;;
58250;SDS011;51449;51.676;5.812;2024-01-15T03:59:58;1.97;;;1.00;;
58250;SDS011;51449;51.676;5.812;2024-01-15T04:02:20;1.60;;;0.63;;
58250;SDS011;51449;51.676;5.812;2024-01-15T04:04:42;2.37;;;0.97;;
58250;SDS011;51449;51.676;5.812;2024-01-15T04:07:04;0.50;;;0.50;;
58250;SDS011;51449;51.676;5.812;2024-01-15T04:09:26;0.40;;;0.40;;
58250;SDS011;51449;51.676;5.812;2024-01-15T04:11:48;2.83;;;0.63;;
58250;SDS011;51449;51.676;5.812;2024-01-15T04:14:10;1.17;;;1.07;;
58250;SDS011;51449;51.676;5.812;2024-01-15T04:16:31;0.50;;;0.50;;
58250;SDS011;51449;51.676;5.812;2024-01-15T04:18:53;1.23;;;0.70;;
58250;SDS011;51449;51.676;5.812;2024-01-15T04:21:16;1.00;;;0.60;;
58250;SDS011;51449;51.676;5.812;2024-01-15T04:26:01;0.90;;;0.30;;
58250;SDS011;51449;51.676;5.812;2024-01-15T04:28:23;5.20;;;0.40;;
58250;SDS011;51449;51.676;5.812;2024-01-15T04:30:45;2.17;;;0.73;;
58250;SDS011;51449;51.676;5.812;2024-01-15T04:33:07;0.50;;;0.50;;
58250;SDS011;51449;51.676;5.812;2024-01-15T04:35:30;1.43;;;0.97;;
58250;SDS011;51449;51.676;5.812;2024-01-15T04:37:52;4.63;;;0.77;;
58250;SDS011;51449;51.676;5.812;2024-01-15T04:40:14;2.67;;;0.47;;
58250;SDS011;51449;51.676;5.812;2024-01-15T04:42:36;3.30;;;0.60;;
58250;SDS011;51449;51.676;5.812;2024-01-15T04:44:58;0.30;;;0.30;;
58250;SDS011;51449;51.676;5.812;2024-01-15T04:47:20;1.03;;;0.93;;
58250;SDS011;51449;51.676;5.812;2024-01-15T04:49:41;4.10;;;0.77;;
58250;SDS011;51449;51.676;5.812;2024-01-15T04:52:03;0.83;;;0.30;;
58250;SDS011;51449;51.676;5.812;2024-01-15T04:54:25;1.10;;;0.93;;
58250;SDS011;51449;51.676;5.812;2024-01-15T04:56:47;2.73;;;0.63;;
58250;SDS011;51449;51.676;5.812;2024-01-15T04:59:09;2.63;;;0.47;;
58250;SDS011;51449;51.676;5.812;2024-01-15T05:01:31;4.00;;;0.53;;
58250;SDS011;51449;51.676;5.812;2024-01-15T05:03:54;2.67;;;1.00;;
58250;SDS011;51449;51.676;5.812;2024-01-15T05:06:20;0.43;;;0.43;;
58250;SDS011;51449;51.676;5.812;2024-01-15T05:08:42;5.43;;;1.17;;
58250;SDS011;51449;51.676;5.812;2024-01-15T05:11:03;2.03;;;0.40;;
58250;SDS011;51449;51.676;5.812;2024-01-15T05:13:25;4.93;;;0.70;;
58250;SDS011;51449;51.676;5.812;2024-01-15T05:15:47;0.60;;;0.60;;
58250;SDS011;51449;51.676;5.812;2024-01-15T05:18:09;3.87;;;2.53;;
58250;SDS011;51449;51.676;5.812;2024-01-15T05:20:31;2.73;;;0.57;;
58250;SDS011;51449;51.676;5.812;2024-01-15T05:22:53;3.87;;;0.67;;
58250;SDS011;51449;51.676;5.812;2024-01-15T05:25:15;0.47;;;0.47;;
58250;SDS011;51449;51.676;5.812;2024-01-15T05:27:36;3.03;;;0.90;;
58250;SDS011;51449;51.676;5.812;2024-01-15T05:29:58;0.40;;;0.40;;
58250;SDS011;51449;51.676;5.812;2024-01-15T05:32:20;0.87;;;0.47;;
58250;SDS011;51449;51.676;5.812;2024-01-15T05:34:42;0.50;;;0.50;;
58250;SDS011;51449;51.676;5.812;2024-01-15T05:37:04;1.07;;;0.50;;
58250;SDS011;51449;51.676;5.812;2024-01-15T05:39:25;0.87;;;0.87;;
58250;SDS011;51449;51.676;5.812;2024-01-15T05:41:47;0.73;;;0.33;;
58250;SDS011;51449;51.676;5.812;2024-01-15T05:44:09;0.40;;;0.40;;
58250;SDS011;51449;51.676;5.812;2024-01-15T05:46:32;3.30;;;0.73;;
58250;SDS011;51449;51.676;5.812;2024-01-15T05:48:54;1.00;;;0.80;;
58250;SDS011;51449;51.676;5.812;2024-01-15T05:51:16;0.77;;;0.73;;
58250;SDS011;51449;51.676;5.812;2024-01-15T05:53:38;0.53;;;0.53;;
58250;SDS011;51449;51.676;5.812;2024-01-15T05:56:01;0.50;;;0.50;;
58250;SDS011;51449;51.676;5.812;2024-01-15T05:58:23;2.07;;;1.10;;
58250;SDS011;51449;51.676;5.812;2024-01-15T06:00:45;0.50;;;0.50;;
58250;SDS011;51449;51.676;5.812;2024-01-15T06:03:07;0.90;;;0.90;;
58250;SDS011;51449;51.676;5.812;2024-01-15T06:05:29;0.50;;;0.50;;
58250;SDS011;51449;51.676;5.812;2024-01-15T06:07:51;1.53;;;0.60;;
58250;SDS011;51449;51.676;5.812;2024-01-15T06:10:13;0.63;;;0.60;;
58250;SDS011;51449;51.676;5.812;2024-01-15T06:12:34;1.07;;;0.67;;
58250;SDS011;51449;51.676;5.812;2024-01-15T06:14:56;1.43;;;0.83;;
58250;SDS011;51449;51.676;5.812;2024-01-15T06:17:18;1.00;;;0.70;;
58250;SDS011;51449;51.676;5.812;2024-01-15T06:19:40;2.30;;;0.70;;
58250;SDS011;51449;51.676;5.812;2024-01-15T06:22:02;1.53;;;0.60;;
58250;SDS011;51449;51.676;5.812;2024-01-15T06:24:24;0.60;;;0.60;;
58250;SDS011;51449;51.676;5.812;2024-01-15T06:26:46;1.50;;;0.70;;
58250;SDS011;51449;51.676;5.812;2024-01-15T06:29:08;0.33;;;0.33;;
58250;SDS011;51449;51.676;5.812;2024-01-15T06:31:30;2.17;;;0.93;;
58250;SDS011;51449;51.676;5.812;2024-01-15T06:33:52;1.07;;;0.50;;
58250;SDS011;51449;51.676;5.812;2024-01-15T06:36:14;0.47;;;0.47;;
58250;SDS011;51449;51.676;5.812;2024-01-15T06:38:37;0.63;;;0.50;;
58250;SDS011;51449;51.676;5.812;2024-01-15T06:40:59;4.60;;;1.27;;
58250;SDS011;51449;51.676;5.812;2024-01-15T06:43:21;1.90;;;1.17;;
58250;SDS011;51449;51.676;5.812;2024-01-15T06:45:43;0.77;;;0.63;;
58250;SDS011;51449;51.676;5.812;2024-01-15T06:48:06;1.50;;;0.67;;
58250;SDS011;51449;51.676;5.812;2024-01-15T06:50:29;1.33;;;1.33;;
58250;SDS011;51449;51.676;5.812;2024-01-15T06:52:50;0.70;;;0.70;;
58250;SDS011;51449;51.676;5.812;2024-01-15T06:55:12;1.13;;;0.40;;
58250;SDS011;51449;51.676;5.812;2024-01-15T06:57:34;1.83;;;0.93;;
58250;SDS011;51449;51.676;5.812;2024-01-15T06:59:56;1.00;;;0.97;;
58250;SDS011;51449;51.676;5.812;2024-01-15T07:02:18;1.90;;;1.27;;
58250;SDS011;51449;51.676;5.812;2024-01-15T07:04:39;0.60;;;0.60;;
58250;SDS011;51449;51.676;5.812;2024-01-15T07:07:04;1.17;;;0.90;;
58250;SDS011;51449;51.676;5.812;2024-01-15T07:09:25;0.83;;;0.47;;
58250;SDS011;51449;51.676;5.812;2024-01-15T07:11:47;1.33;;;1.10;;
58250;SDS011;51449;51.676;5.812;2024-01-15T07:14:09;0.83;;;0.67;;
58250;SDS011;51449;51.676;5.812;2024-01-15T07:16:32;2.23;;;1.47;;
58250;SDS011;51449;51.676;5.812;2024-01-15T07:18:59;2.23;;;2.13;;
58250;SDS011;51449;51.676;5.812;2024-01-15T07:21:20;0.73;;;0.73;;
58250;SDS011;51449;51.676;5.812;2024-01-15T07:23:42;2.70;;;1.17;;
58250;SDS011;51449;51.676;5.812;2024-01-15T07:26:04;1.97;;;1.20;;
58250;SDS011;51449;51.676;5.812;2024-01-15T07:28:28;2.13;;;1.30;;
58250;SDS011;51449;51.676;5.812;2024-01-15T07:30:50;1.25;;;0.80;;
58250;SDS011;51449;51.676;5.812;2024-01-15T07:33:12;2.90;;;1.70;;
58250;SDS011;51449;51.676;5.812;2024-01-15T07:35:34;3.30;;;1.80;;
58250;SDS011;51449;51.676;5.812;2024-01-15T07:37:56;3.90;;;2.03;;
58250;SDS011;51449;51.676;5.812;2024-01-15T07:40:18;1.07;;;0.90;;
58250;SDS011;51449;51.676;5.812;2024-01-15T07:42:39;3.23;;;1.83;;
58250;SDS011;51449;51.676;5.812;2024-01-15T07:45:01;2.57;;;1.50;;
58250;SDS011;51449;51.676;5.812;2024-01-15T07:47:23;1.50;;;1.40;;
58250;SDS011;51449;51.676;5.812;2024-01-15T07:49:45;1.63;;;1.53;;
58250;SDS011;51449;51.676;5.812;2024-01-15T07:52:07;2.90;;;1.70;;
58250;SDS011;51449;51.676;5.812;2024-01-15T07:54:29;3.50;;;2.40;;
58250;SDS011;51449;51.676;5.812;2024-01-15T07:56:54;2.97;;;2.43;;
58250;SDS011;51449;51.676;5.812;2024-01-15T07:59:22;2.43;;;2.23;;
58250;SDS011;51449;51.676;5.812;2024-01-15T08:01:45;1.70;;;1.60;;
58250;SDS011;51449;51.676;5.812;2024-01-15T08:04:07;1.70;;;1.60;;
58250;SDS011;51449;51.676;5.812;2024-01-15T08:06:30;2.40;;;2.05;;
58250;SDS011;51449;51.676;5.812;2024-01-15T08:08:53;1.80;;;1.50;;
58250;SDS011;51449;51.676;5.812;2024-01-15T08:11:15;1.43;;;1.10;;
58250;SDS011;51449;51.676;5.812;2024-01-15T08:13:36;2.23;;;2.03;;
58250;SDS011;51449;51.676;5.812;2024-01-15T08:15:58;3.40;;;1.77;;
58250;SDS011;51449;51.676;5.812;2024-01-15T08:18:20;2.60;;;2.37;;
58250;SDS011;51449;51.676;5.812;2024-01-15T08:20:43;1.90;;;1.67;;
58250;SDS011;51449;51.676;5.812;2024-01-15T08:23:05;2.07;;;1.90;;
58250;SDS011;51449;51.676;5.812;2024-01-15T08:25:27;1.10;;;1.00;;
58250;SDS011;51449;51.676;5.812;2024-01-15T08:27:49;6.00;;;1.67;;
58250;SDS011;51449;51.676;5.812;2024-01-15T08:30:10;1.80;;;1.40;;
58250;SDS011;51449;51.676;5.812;2024-01-15T08:32:33;1.37;;;1.30;;
58250;SDS011;51449;51.676;5.812;2024-01-15T08:34:57;1.48;;;1.38;;
58250;SDS011;51449;51.676;5.812;2024-01-15T08:37:19;2.97;;;2.10;;
58250;SDS011;51449;51.676;5.812;2024-01-15T08:39:41;2.17;;;1.33;;
58250;SDS011;51449;51.676;5.812;2024-01-15T08:42:03;3.30;;;2.73;;
58250;SDS011;51449;51.676;5.812;2024-01-15T08:44:25;1.97;;;1.60;;
58250;SDS011;51449;51.676;5.812;2024-01-15T08:46:48;4.27;;;2.10;;
58250;SDS011;51449;51.676;5.812;2024-01-15T08:49:10;1.57;;;1.27;;
58250;SDS011;51449;51.676;5.812;2024-01-15T08:51:32;2.50;;;1.60;;
58250;SDS011;51449;51.676;5.812;2024-01-15T08:53:54;2.27;;;1.90;;
58250;SDS011;51449;51.676;5.812;2024-01-15T08:56:18;1.20;;;1.20;;
58250;SDS011;51449;51.676;5.812;2024-01-15T08:58:39;1.27;;;1.20;;
58250;SDS011;51449;51.676;5.812;2024-01-15T09:01:01;1.57;;;1.40;;
58250;SDS011;51449;51.676;5.812;2024-01-15T09:03:23;0.80;;;0.80;;
58250;SDS011;51449;51.676;5.812;2024-01-15T09:05:45;1.67;;;1.57;;
58250;SDS011;51449;51.676;5.812;2024-01-15T09:08:07;1.03;;;0.90;;
58250;SDS011;51449;51.676;5.812;2024-01-15T09:10:29;0.73;;;0.73;;
58250;SDS011;51449;51.676;5.812;2024-01-15T09:12:51;0.63;;;0.63;;
58250;SDS011;51449;51.676;5.812;2024-01-15T09:15:13;0.50;;;0.50;;
58250;SDS011;51449;51.676;5.812;2024-01-15T09:17:35;0.50;;;0.50;;
58250;SDS011;51449;51.676;5.812;2024-01-15T09:19:57;0.30;;;0.30;;
58250;SDS011;51449;51.676;5.812;2024-01-15T09:22:19;0.80;;;0.43;;
58250;SDS011;51449;51.676;5.812;2024-01-15T09:24:41;0.87;;;0.60;;
58250;SDS011;51449;51.676;5.812;2024-01-15T09:27:03;2.63;;;0.70;;
58250;SDS011;51449;51.676;5.812;2024-01-15T09:29:25;0.27;;;0.27;;
58250;SDS011;51449;51.676;5.812;2024-01-15T09:31:47;2.40;;;0.70;;
58250;SDS011;51449;51.676;5.812;2024-01-15T09:34:09;0.60;;;0.60;;
58250;SDS011;51449;51.676;5.812;2024-01-15T09:36:32;0.97;;;0.93;;
58250;SDS011;51449;51.676;5.812;2024-01-15T09:38:53;0.77;;;0.73;;
58250;SDS011;51449;51.676;5.812;2024-01-15T09:41:15;0.60;;;0.60;;
58250;SDS011;51449;51.676;5.812;2024-01-15T09:43:37;0.53;;;0.50;;
58250;SDS011;51449;51.676;5.812;2024-01-15T09:46:00;0.83;;;0.57;;
58250;SDS011;51449;51.676;5.812;2024-01-15T09:48:23;0.73;;;0.73;;
58250;SDS011;51449;51.676;5.812;2024-01-15T09:50:45;1.07;;;1.07;;
58250;SDS011;51449;51.676;5.812;2024-01-15T09:53:07;1.50;;;1.40;;
58250;SDS011;51449;51.676;5.812;2024-01-15T09:55:31;1.48;;;1.38;;
58250;SDS011;51449;51.676;5.812;2024-01-15T09:57:56;0.93;;;0.90;;
58250;SDS011;51449;51.676;5.812;2024-01-15T10:00:23;1.10;;;1.00;;
58250;SDS011;51449;51.676;5.812;2024-01-15T10:02:46;3.30;;;2.67;;
58250;SDS011;51449;51.676;5.812;2024-01-15T10:05:08;2.30;;;2.10;;
58250;SDS011;51449;51.676;5.812;2024-01-15T10:07:31;2.03;;;1.83;;
58250;SDS011;51449;51.676;5.812;2024-01-15T10:09:57;3.63;;;2.20;;
58250;SDS011;51449;51.676;5.812;2024-01-15T10:12:19;3.00;;;2.70;;
58250;SDS011;51449;51.676;5.812;2024-01-15T10:14:45;2.73;;;2.50;;
58250;SDS011;51449;51.676;5.812;2024-01-15T10:17:13;2.80;;;2.53;;
58250;SDS011;51449;51.676;5.812;2024-01-15T10:19:36;2.10;;;2.00;;
58250;SDS011;51449;51.676;5.812;2024-01-15T10:21:58;1.80;;;1.57;;
58250;SDS011;51449;51.676;5.812;2024-01-15T10:24:20;2.37;;;2.13;;
58250;SDS011;51449;51.676;5.812;2024-01-15T10:26:42;1.90;;;1.80;;
58250;SDS011;51449;51.676;5.812;2024-01-15T10:29:04;2.80;;;2.60;;
58250;SDS011;51449;51.676;5.812;2024-01-15T10:31:26;2.53;;;2.30;;
58250;SDS011;51449;51.676;5.812;2024-01-15T10:33:51;1.37;;;1.27;;
58250;SDS011;51449;51.676;5.812;2024-01-15T10:36:13;1.57;;;1.47;;
58250;SDS011;51449;51.676;5.812;2024-01-15T10:38:36;2.83;;;2.00;;
58250;SDS011;51449;51.676;5.812;2024-01-15T10:40:59;1.80;;;1.70;;
58250;SDS011;51449;51.676;5.812;2024-01-15T10:43:21;1.93;;;1.30;;
58250;SDS011;51449;51.676;5.812;2024-01-15T10:45:49;1.10;;;1.00;;
58250;SDS011;51449;51.676;5.812;2024-01-15T10:48:12;4.68;;;1.08;;
58250;SDS011;51449;51.676;5.812;2024-01-15T10:50:35;2.80;;;1.90;;
58250;SDS011;51449;51.676;5.812;2024-01-15T10:52:57;0.93;;;0.80;;
58250;SDS011;51449;51.676;5.812;2024-01-15T10:55:19;1.20;;;1.20;;
58250;SDS011;51449;51.676;5.812;2024-01-15T10:57:42;4.10;;;1.53;;
58250;SDS011;51449;51.676;5.812;2024-01-15T11:00:06;1.23;;;1.23;;
58250;SDS011;51449;51.676;5.812;2024-01-15T11:02:34;1.08;;;1.08;;
58250;SDS011;51449;51.676;5.812;2024-01-15T11:04:59;3.73;;;1.47;;
58250;SDS011;51449;51.676;5.812;2024-01-15T11:07:24;1.77;;;1.57;;
58250;SDS011;51449;51.676;5.812;2024-01-15T11:09:49;0.87;;;0.87;;
58250;SDS011;51449;51.676;5.812;2024-01-15T11:12:15;0.93;;;0.93;;
58250;SDS011;51449;51.676;5.812;2024-01-15T11:14:48;1.07;;;1.07;;
58250;SDS011;51449;51.676;5.812;2024-01-15T11:17:11;2.30;;;1.13;;
58250;SDS011;51449;51.676;5.812;2024-01-15T11:19:35;2.92;;;1.20;;
58250;SDS011;51449;51.676;5.812;2024-01-15T11:22:04;0.80;;;0.80;;
58250;SDS011;51449;51.676;5.812;2024-01-15T11:24:33;2.03;;;1.05;;
58250;SDS011;51449;51.676;5.812;2024-01-15T11:26:57;0.80;;;0.80;;
58250;SDS011;51449;51.676;5.812;2024-01-15T11:29:29;1.23;;;1.23;;
58250;SDS011;51449;51.676;5.812;2024-01-15T11:34:21;0.83;;;0.83;;
58250;SDS011;51449;51.676;5.812;2024-01-15T11:37:13;0.93;;;0.93;;
58250;SDS011;51449;51.676;5.812;2024-01-15T11:39:42;1.47;;;0.90;;
58250;SDS011;51449;51.676;5.812;2024-01-15T11:42:04;1.00;;;1.00;;
58250;SDS011;51449;51.676;5.812;2024-01-15T11:44:26;0.77;;;0.77;;
58250;SDS011;51449;51.676;5.812;2024-01-15T11:46:59;5.50;;;1.03;;
58250;SDS011;51449;51.676;5.812;2024-01-15T11:49:48;1.20;;;1.20;;
58250;SDS011;51449;51.676;5.812;2024-01-15T11:52:23;1.20;;;0.97;;
58250;SDS011;51449;51.676;5.812;2024-01-15T11:54:59;4.57;;;1.20;;
58250;SDS011;51449;51.676;5.812;2024-01-15T11:57:30;1.17;;;1.07;;
58250;SDS011;51449;51.676;5.812;2024-01-15T12:00:10;1.87;;;1.73;;
58250;SDS011;51449;51.676;5.812;2024-01-15T12:02:34;0.80;;;0.80;;
58250;SDS011;51449;51.676;5.812;2024-01-15T12:04:57;5.83;;;1.53;;
58250;SDS011;51449;51.676;5.812;2024-01-15T12:07:19;3.90;;;1.27;;
58250;SDS011;51449;51.676;5.812;2024-01-15T12:09:43;1.57;;;1.47;;
58250;SDS011;51449;51.676;5.812;2024-01-15T12:12:07;1.83;;;1.73;;
58250;SDS011;51449;51.676;5.812;2024-01-15T12:14:38;1.23;;;1.23;;
58250;SDS011;51449;51.676;5.812;2024-01-15T12:17:00;1.20;;;1.10;;
58250;SDS011;51449;51.676;5.812;2024-01-15T12:19:26;1.53;;;1.43;;
58250;SDS011;51449;51.676;5.812;2024-01-15T12:21:50;0.90;;;0.90;;
58250;SDS011;51449;51.676;5.812;2024-01-15T12:26:34;2.50;;;1.33;;
58250;SDS011;51449;51.676;5.812;2024-01-15T12:28:56;0.77;;;0.77;;
58250;SDS011;51449;51.676;5.812;2024-01-15T12:31:19;1.20;;;1.20;;
58250;SDS011;51449;51.676;5.812;2024-01-15T12:33:41;1.00;;;1.00;;
58250;SDS011;51449;51.676;5.812;2024-01-15T12:36:03;0.97;;;0.97;;
58250;SDS011;51449;51.676;5.812;2024-01-15T12:38:27;0.80;;;0.80;;
58250;SDS011;51449;51.676;5.812;2024-01-15T12:40:49;0.70;;;0.70;;
58250;SDS011;51449;51.676;5.812;2024-01-15T12:43:11;0.97;;;0.97;;
58250;SDS011;51449;51.676;5.812;2024-01-15T12:45:33;0.77;;;0.77;;
58250;SDS011;51449;51.676;5.812;2024-01-15T12:47:57;1.05;;;1.05;;
58250;SDS011;51449;51.676;5.812;2024-01-15T12:50:20;1.00;;;1.00;;
58250;SDS011;51449;51.676;5.812;2024-01-15T12:52:47;1.20;;;1.20;;
58250;SDS011;51449;51.676;5.812;2024-01-15T12:55:09;1.03;;;1.03;;
58250;SDS011;51449;51.676;5.812;2024-01-15T12:57:31;1.70;;;1.40;;
58250;SDS011;51449;51.676;5.812;2024-01-15T12:59:54;0.80;;;0.80;;
58250;SDS011;51449;51.676;5.812;2024-01-15T13:02:16;0.70;;;0.70;;
58250;SDS011;51449;51.676;5.812;2024-01-15T13:04:38;0.50;;;0.50;;
58250;SDS011;51449;51.676;5.812;2024-01-15T13:07:01;0.73;;;0.73;;
58250;SDS011;51449;51.676;5.812;2024-01-15T13:09:23;0.60;;;0.60;;
58250;SDS011;51449;51.676;5.812;2024-01-15T13:11:45;1.00;;;1.00;;
58250;SDS011;51449;51.676;5.812;2024-01-15T13:14:08;0.50;;;0.50;;
58250;SDS011;51449;51.676;5.812;2024-01-15T13:16:30;0.87;;;0.87;;
58250;SDS011;51449;51.676;5.812;2024-01-15T13:18:52;0.80;;;0.80;;
58250;SDS011;51449;51.676;5.812;2024-01-15T13:21:14;1.53;;;1.43;;
58250;SDS011;51449;51.676;5.812;2024-01-15T13:23:35;2.07;;;1.87;;
58250;SDS011;51449;51.676;5.812;2024-01-15T13:25:58;0.90;;;0.90;;
58250;SDS011;51449;51.676;5.812;2024-01-15T13:28:20;1.30;;;1.20;;
58250;SDS011;51449;51.676;5.812;2024-01-15T13:30:44;3.20;;;1.47;;
58250;SDS011;51449;51.676;5.812;2024-01-15T13:33:06;1.30;;;0.97;;
58250;SDS011;51449;51.676;5.812;2024-01-15T13:35:29;1.30;;;1.25;;
58250;SDS011;51449;51.676;5.812;2024-01-15T13:37:51;3.73;;;1.33;;
58250;SDS011;51449;51.676;5.812;2024-01-15T13:40:14;0.77;;;0.77;;
58250;SDS011;51449;51.676;5.812;2024-01-15T13:42:41;1.20;;;1.20;;
58250;SDS011;51449;51.676;5.812;2024-01-15T13:45:04;3.90;;;0.90;;
58250;SDS011;51449;51.676;5.812;2024-01-15T13:47:30;1.27;;;1.27;;
58250;SDS011;51449;51.676;5.812;2024-01-15T13:49:52;0.93;;;0.87;;
58250;SDS011;51449;51.676;5.812;2024-01-15T13:52:14;3.70;;;1.87;;
58250;SDS011;51449;51.676;5.812;2024-01-15T13:54:36;1.90;;;1.13;;
58250;SDS011;51449;51.676;5.812;2024-01-15T13:57:10;1.70;;;1.35;;
58250;SDS011;51449;51.676;5.812;2024-01-15T13:59:32;3.47;;;1.10;;
58250;SDS011;51449;51.676;5.812;2024-01-15T14:01:54;1.13;;;1.13;;
58250;SDS011;51449;51.676;5.812;2024-01-15T14:04:16;1.13;;;1.00;;
58250;SDS011;51449;51.676;5.812;2024-01-15T14:06:38;1.07;;;1.07;;
58250;SDS011;51449;51.676;5.812;2024-01-15T14:09:00;2.07;;;0.67;;
58250;SDS011;51449;51.676;5.812;2024-01-15T14:11:22;1.23;;;0.57;;
58250;SDS011;51449;51.676;5.812;2024-01-15T14:13:44;1.07;;;0.97;;
58250;SDS011;51449;51.676;5.812;2024-01-15T14:16:07;1.70;;;1.23;;
58250;SDS011;51449;51.676;5.812;2024-01-15T14:18:28;0.40;;;0.40;;
58250;SDS011;51449;51.676;5.812;2024-01-15T14:20:55;0.73;;;0.70;;
58250;SDS011;51449;51.676;5.812;2024-01-15T14:23:17;0.50;;;0.50;;
58250;SDS011;51449;51.676;5.812;2024-01-15T14:25:39;0.70;;;0.70;;
58250;SDS011;51449;51.676;5.812;2024-01-15T14:28:00;2.57;;;0.97;;